KINDAKUN POINT, BC current weather conditions

sailwx.info

Wind from 120 at 5 knots

Air temperature 6.0° C
Dewpoint 5.0° C

Last reported at 2015-Mar-06 11:00 UTC.
Time now 2015-Mar-06 12:39 UTC

Location: N 53°19' W 132°46'.
View on Google Maps.

See reports from other nearby stations

  
Tides and Currents Weather Stations Pressure Air Temp Water Temp Dewpoint Dewpoint Depression Visibility Wind Speed Wind Dir Waves Ship Positions
date/time (UTC)wind fromknots sea level pressurealtimeterstation pressurevisibilityair tempwater tempwave heightnotes
2015-Mar-06 11:00 120 5 6.0
2015-Mar-06 10:00 7.0
2015-Mar-06 09:00 110 5 7.0
2015-Mar-06 08:00 050 1 7.0
2015-Mar-06 07:00 130 4 7.0
2015-Mar-06 06:00 260 7 8.0
2015-Mar-06 05:00 230 5 8.0
2015-Mar-06 04:00 210 7 8.0
2015-Mar-06 03:00 270 6 8.0
2015-Mar-06 02:00 290 11 8.0
2015-Mar-06 01:00 300 15 8.0
2015-Mar-06 00:00 320 16 7.0
2015-Mar-05 23:00 310 17 8.0
2015-Mar-05 22:00 300 19 8.0
2015-Mar-05 21:00 320 25 8.0
2015-Mar-05 20:00 200 27 gusting 35 10.0
2015-Mar-05 19:00 190 27 gusting 32 10.0
2015-Mar-05 18:00 190 27 gusting 32 10.0
2015-Mar-05 17:00 170 27 gusting 34 9.0
2015-Mar-05 16:00 170 16 8.0
2015-Mar-04 13:00 220 12 7.0
2015-Mar-04 12:00 200 10 7.0